ZYTL

Dalian Zhoushuizi International

Airport
ICAO code
ZYTL
Summary
ICAO Region
APAC
ICAO Territory
Location

Dalian, Liaoning,

Coordinates
38° 57' 56" N , 121° 32' 18" E
KCC
Metar
ZYTL 251530Z 27002MPS 230V290 CAVOK 21/16 Q1013 NOSIG

Description

Dalian Zhoushuizi International Airport is the airport serving the city of Dalian in Liaoning Province, China. It is located in Ganjingzi District, about 10 km northwest of the city center.

Climatology

Dalian has a monsoon-influenced humid continental climate (Köppen climate classification Dwa), characterised by humid summers due to the East Asian monsoon, and cold, windy, dry winters that reflect the influence of the vast Siberian anticyclone. Except for winter, the city experiences a one-month seasonal lag due to its position on the Liaodong Peninsula. Average temperatures range from −3.9 °C in January to 24.1 °C in August. Annual precipitation averages 602 millimetres but is heavily concentrated in the summer months and can vary greatly from year to year. Due to the coastal location, the mean diurnal temperature variation annually is small, at 6.75 °C. The annual mean temperature is 10.9 °C.

Airport map

Aerial View

SKYbrary Partners:

Safety knowledge contributed by: